Time;durP1;ratioP1;P1;durP2;ratioP2;P2;SDS_P1;SDS_P2;PMS_P1;PMS_P2;Temp;Humidity;BMP_temperature;BMP_pressure;BME280_temperature;BME280_humidity;BME280_pressure;Samples;Min_cycle;Max_cycle;Signal;HPM_P1;HPM_P2
2020/12/07 00:00:36;;;;;;;29.38;12.35;;;;;;;;;;2052926;28;20068;-70
2020/12/07 00:01:55;;;;;;;28.73;12.23;;;;;;;;;;2056548;28;20023;-68
2020/12/07 00:03:14;;;;;;;25.65;11.30;;;;;;;;;;2052961;28;20031;-70
2020/12/07 00:04:33;;;;;;;25.13;11.82;;;;;;;;;;2051442;28;20027;-70
2020/12/07 00:05:51;;;;;;;30.02;11.93;;;;;;;;;;2053811;28;20031;-70
2020/12/07 00:07:10;;;;;;;26.85;11.93;;;;;;;;;;2053226;28;20442;-69
2020/12/07 00:08:29;;;;;;;31.38;12.25;;;;;;;;;;2050283;28;20035;-70
2020/12/07 00:09:48;;;;;;;25.50;12.23;;;;;;;;;;2055567;28;20536;-70
2020/12/07 00:11:09;;;;;;;24.38;11.35;;;;;;;;;;2053894;28;20065;-69
2020/12/07 00:12:28;;;;;;;25.90;11.13;;;;;;;;;;2053185;28;20039;-69
2020/12/07 00:13:47;;;;;;;29.90;11.65;;;;;;;;;;2055012;28;20117;-69
2020/12/07 00:15:06;;;;;;;25.85;11.38;;;;;;;;;;2053584;28;20027;-70
2020/12/07 00:16:25;;;;;;;31.77;11.23;;;;;;;;;;2050084;28;20031;-70
2020/12/07 00:17:43;;;;;;;24.00;10.73;;;;;;;;;;2055662;28;20035;-70
2020/12/07 00:19:02;;;;;;;23.17;11.00;;;;;;;;;;2052439;28;20473;-71
2020/12/07 00:20:21;;;;;;;28.60;11.82;;;;;;;;;;2053750;28;20454;-68
2020/12/07 00:21:43;;;;;;;27.23;10.88;;;;;;;;;;2052506;28;20031;-70
2020/12/07 00:23:02;;;;;;;27.65;11.88;;;;;;;;;;2053466;28;20031;-70
2020/12/07 00:24:21;;;;;;;26.45;10.95;;;;;;;;;;2053783;28;20046;-68
2020/12/07 00:25:40;;;;;;;27.45;11.52;;;;;;;;;;2056307;28;20023;-70
2020/12/07 00:26:58;;;;;;;27.08;11.70;;;;;;;;;;2054029;28;20023;-70
2020/12/07 00:28:17;;;;;;;29.42;12.88;;;;;;;;;;2053930;28;20023;-70
2020/12/07 00:29:36;;;;;;;24.58;11.80;;;;;;;;;;2056657;28;20034;-67
2020/12/07 00:30:56;;;;;;;29.05;11.65;;;;;;;;;;2052407;28;20434;-70
2020/12/07 00:32:14;;;;;;;28.45;12.23;;;;;;;;;;2053634;28;20067;-70
2020/12/07 00:33:34;;;;;;;27.70;11.65;;;;;;;;;;2055084;28;20482;-70
2020/12/07 00:34:53;;;;;;;24.30;11.95;;;;;;;;;;2056095;28;20035;-70
2020/12/07 00:36:12;;;;;;;26.70;11.82;;;;;;;;;;2054356;28;20071;-69
2020/12/07 00:37:31;;;;;;;24.95;11.35;;;;;;;;;;2052077;28;20055;-69
2020/12/07 00:38:50;;;;;;;23.92;11.45;;;;;;;;;;2057399;28;20023;-70
2020/12/07 00:40:09;;;;;;;22.50;11.20;;;;;;;;;;2056631;28;20030;-72
2020/12/07 00:41:27;;;;;;;23.08;11.57;;;;;;;;;;2057275;28;20039;-69
2020/12/07 00:42:46;;;;;;;22.85;11.30;;;;;;;;;;2054633;28;20035;-69
2020/12/07 00:44:06;;;;;;;25.45;11.88;;;;;;;;;;2055132;28;20067;-71
2020/12/07 00:45:25;;;;;;;25.25;11.20;;;;;;;;;;2054300;28;20039;-69
2020/12/07 00:46:44;;;;;;;24.15;11.10;;;;;;;;;;2056051;28;20390;-70
2020/12/07 00:48:03;;;;;;;29.27;11.77;;;;;;;;;;2056752;28;20479;-70
2020/12/07 00:49:22;;;;;;;26.55;11.63;;;;;;;;;;2056029;28;20467;-70
2020/12/07 00:50:41;;;;;;;22.23;10.88;;;;;;;;;;2057482;28;20054;-69
2020/12/07 00:52:00;;;;;;;22.90;11.68;;;;;;;;;;2056790;28;20034;-70
2020/12/07 00:53:19;;;;;;;26.23;11.80;;;;;;;;;;2054377;28;20027;-69
2020/12/07 00:54:38;;;;;;;25.55;12.63;;;;;;;;;;2055676;28;20035;-70
2020/12/07 00:55:56;;;;;;;24.23;11.68;;;;;;;;;;2051720;28;20043;-70
2020/12/07 00:57:15;;;;;;;27.85;13.00;;;;;;;;;;2057285;28;20026;-70
2020/12/07 00:58:34;;;;;;;24.17;11.80;;;;;;;;;;2055349;28;20027;-70
2020/12/07 00:59:53;;;;;;;28.98;12.27;;;;;;;;;;2052582;28;20023;-70
2020/12/07 01:01:12;;;;;;;25.83;12.00;;;;;;;;;;2056237;28;20583;-69
2020/12/07 01:02:32;;;;;;;29.08;12.13;;;;;;;;;;2054990;28;20375;-70
2020/12/07 01:03:50;;;;;;;28.10;12.85;;;;;;;;;;2053283;28;20106;-69
2020/12/07 01:05:09;;;;;;;25.13;12.15;;;;;;;;;;2056835;28;20019;-70
2020/12/07 01:06:28;;;;;;;25.45;11.93;;;;;;;;;;2056532;28;20034;-70
2020/12/07 01:07:47;;;;;;;24.90;12.48;;;;;;;;;;2057728;28;20027;-70
2020/12/07 01:09:06;;;;;;;27.80;13.10;;;;;;;;;;2055819;28;20027;-70
2020/12/07 01:10:25;;;;;;;23.88;12.63;;;;;;;;;;2055796;28;20683;-70
2020/12/07 01:11:44;;;;;;;21.73;12.15;;;;;;;;;;2054143;28;20027;-70
2020/12/07 01:13:03;;;;;;;31.60;12.40;;;;;;;;;;2052101;28;20019;-70
2020/12/07 01:14:22;;;;;;;25.75;12.25;;;;;;;;;;2052481;28;20407;-71
2020/12/07 01:15:41;;;;;;;25.60;12.35;;;;;;;;;;2054231;28;20038;-70
2020/12/07 01:17:00;;;;;;;25.52;12.85;;;;;;;;;;2054134;28;20042;-70
2020/12/07 01:18:19;;;;;;;26.02;12.63;;;;;;;;;;2055064;28;20030;-70
2020/12/07 01:19:38;;;;;;;28.92;12.20;;;;;;;;;;2054274;28;20027;-69
2020/12/07 01:20:57;;;;;;;27.45;13.77;;;;;;;;;;2052428;28;20022;-70
2020/12/07 01:22:16;;;;;;;30.88;13.52;;;;;;;;;;2054180;28;20467;-69
2020/12/07 01:23:35;;;;;;;28.45;13.25;;;;;;;;;;2055058;28;20454;-71
2020/12/07 01:24:54;;;;;;;31.40;12.90;;;;;;;;;;2055311;28;20122;-70
2020/12/07 01:26:13;;;;;;;29.00;13.73;;;;;;;;;;2054971;28;20035;-70
2020/12/07 01:27:33;;;;;;;29.00;13.07;;;;;;;;;;2053126;28;20023;-70
2020/12/07 01:28:52;;;;;;;27.23;13.15;;;;;;;;;;2054700;28;20042;-70
2020/12/07 01:30:11;;;;;;;28.73;13.77;;;;;;;;;;2054906;28;20022;-69
2020/12/07 01:31:30;;;;;;;32.72;14.60;;;;;;;;;;2055738;28;20027;-69
2020/12/07 01:32:49;;;;;;;29.98;13.40;;;;;;;;;;2056179;28;20031;-70
2020/12/07 01:34:08;;;;;;;29.98;14.52;;;;;;;;;;2053888;28;20402;-70
2020/12/07 01:35:26;;;;;;;30.23;13.40;;;;;;;;;;2053380;28;20429;-70
2020/12/07 01:36:46;;;;;;;26.73;13.68;;;;;;;;;;2053167;28;20471;-70
2020/12/07 01:38:04;;;;;;;27.67;13.45;;;;;;;;;;2053384;28;20034;-67
2020/12/07 01:39:23;;;;;;;27.52;13.48;;;;;;;;;;2053570;28;20043;-70
2020/12/07 01:40:42;;;;;;;30.83;13.68;;;;;;;;;;2056049;28;20110;-71
2020/12/07 01:42:02;;;;;;;31.05;13.82;;;;;;;;;;2054228;28;20110;-71
2020/12/07 01:43:20;;;;;;;29.00;14.07;;;;;;;;;;2053163;28;20771;-70
2020/12/07 01:44:40;;;;;;;28.48;13.70;;;;;;;;;;2051799;28;20051;-71
2020/12/07 01:45:59;;;;;;;29.48;13.23;;;;;;;;;;2054698;28;20027;-71
2020/12/07 01:47:22;;;;;;;30.42;14.43;;;;;;;;;;2048851;28;20019;-68
2020/12/07 01:48:41;;;;;;;30.38;14.02;;;;;;;;;;2052089;28;20071;-71
2020/12/07 01:50:01;;;;;;;32.50;13.45;;;;;;;;;;2052160;28;20066;-71
2020/12/07 01:51:21;;;;;;;30.98;13.68;;;;;;;;;;2055748;28;20482;-72
2020/12/07 01:52:40;;;;;;;26.20;13.73;;;;;;;;;;2055469;28;20038;-71
2020/12/07 01:53:59;;;;;;;29.48;13.75;;;;;;;;;;2052692;28;20042;-71
2020/12/07 01:55:18;;;;;;;26.48;13.63;;;;;;;;;;2054761;28;20442;-71
2020/12/07 01:56:38;;;;;;;33.63;15.38;;;;;;;;;;2056200;28;20035;-69
2020/12/07 01:57:57;;;;;;;30.25;14.32;;;;;;;;;;2055074;28;20478;-70
2020/12/07 01:59:16;;;;;;;28.88;14.05;;;;;;;;;;2053253;28;20042;-70
2020/12/07 02:00:35;;;;;;;31.33;13.68;;;;;;;;;;2044913;29;20035;-71
2020/12/07 02:01:54;;;;;;;32.13;14.77;;;;;;;;;;2050474;28;20035;-70
2020/12/07 02:03:13;;;;;;;30.80;14.35;;;;;;;;;;2054430;28;20470;-70
2020/12/07 02:04:32;;;;;;;30.35;14.95;;;;;;;;;;2050708;28;20039;-70
2020/12/07 02:05:51;;;;;;;31.05;14.48;;;;;;;;;;2056035;28;20438;-70
2020/12/07 02:07:19;;;;;;;31.52;13.82;;;;;;;;;;2051399;28;20074;-69
2020/12/07 02:08:38;;;;;;;30.02;14.95;;;;;;;;;;2053944;28;20027;-71
2020/12/07 02:09:57;;;;;;;28.65;13.43;;;;;;;;;;2054172;28;20062;-70
2020/12/07 02:11:16;;;;;;;33.25;14.65;;;;;;;;;;2053987;28;20039;-69
2020/12/07 02:12:35;;;;;;;30.20;14.18;;;;;;;;;;2050110;28;20035;-68
2020/12/07 02:13:54;;;;;;;32.65;14.40;;;;;;;;;;2054511;28;20030;-69
2020/12/07 02:15:13;;;;;;;31.13;14.65;;;;;;;;;;2051590;28;20473;-68
2020/12/07 02:16:32;;;;;;;32.53;14.70;;;;;;;;;;2052742;28;20023;-67
2020/12/07 02:17:51;;;;;;;35.38;14.93;;;;;;;;;;2055805;28;20071;-69
2020/12/07 02:19:09;;;;;;;34.75;15.50;;;;;;;;;;2051858;28;20032;-69
2020/12/07 02:20:28;;;;;;;38.17;16.85;;;;;;;;;;2052836;28;20023;-69
2020/12/07 02:21:47;;;;;;;33.90;16.25;;;;;;;;;;2054019;28;20375;-70
2020/12/07 02:23:06;;;;;;;34.28;15.38;;;;;;;;;;2054224;28;20055;-68
2020/12/07 02:24:25;;;;;;;37.65;16.15;;;;;;;;;;2055211;28;20051;-70
2020/12/07 02:25:44;;;;;;;34.85;16.27;;;;;;;;;;2050708;28;20039;-68
2020/12/07 02:27:03;;;;;;;34.78;15.68;;;;;;;;;;2051889;28;20031;-68
2020/12/07 02:28:22;;;;;;;40.88;15.73;;;;;;;;;;2052919;28;20062;-69
2020/12/07 02:29:41;;;;;;;38.95;16.70;;;;;;;;;;2054791;28;20035;-69
2020/12/07 02:31:00;;;;;;;35.55;16.05;;;;;;;;;;2053675;28;20103;-70
2020/12/07 02:32:19;;;;;;;34.03;16.33;;;;;;;;;;2049400;28;20019;-70
2020/12/07 02:33:38;;;;;;;38.58;16.55;;;;;;;;;;2050141;28;20019;-69
2020/12/07 02:34:57;;;;;;;33.88;15.25;;;;;;;;;;2054052;28;20105;-68
2020/12/07 02:36:16;;;;;;;32.72;15.73;;;;;;;;;;2054944;28;20031;-67
2020/12/07 02:37:36;;;;;;;34.08;15.63;;;;;;;;;;2055315;28;20066;-70
2020/12/07 02:38:55;;;;;;;34.53;16.60;;;;;;;;;;2050983;28;20472;-69
2020/12/07 02:40:14;;;;;;;33.75;16.55;;;;;;;;;;2054456;28;20034;-70
2020/12/07 02:41:33;;;;;;;41.08;18.17;;;;;;;;;;2053531;28;20023;-70
2020/12/07 02:42:52;;;;;;;37.60;18.02;;;;;;;;;;2054208;28;20039;-70
2020/12/07 02:44:11;;;;;;;34.70;16.00;;;;;;;;;;2048522;28;20035;-70
2020/12/07 02:45:30;;;;;;;37.20;17.50;;;;;;;;;;2050671;28;20071;-69
2020/12/07 02:46:49;;;;;;;40.42;17.90;;;;;;;;;;2060148;28;20023;-70
2020/12/07 02:48:08;;;;;;;37.83;16.98;;;;;;;;;;2054292;28;20106;-71
2020/12/07 02:49:27;;;;;;;40.55;16.95;;;;;;;;;;2054405;28;20031;-70
2020/12/07 02:50:46;;;;;;;40.22;17.10;;;;;;;;;;2053047;28;20030;-70
2020/12/07 02:52:06;;;;;;;39.08;18.40;;;;;;;;;;2051657;28;20035;-70
2020/12/07 02:53:25;;;;;;;36.25;17.25;;;;;;;;;;2053228;28;20042;-70
2020/12/07 02:54:44;;;;;;;37.75;16.58;;;;;;;;;;2052941;28;20027;-69
2020/12/07 02:56:03;;;;;;;35.10;16.13;;;;;;;;;;2052783;28;20090;-69
2020/12/07 02:57:23;;;;;;;43.53;17.15;;;;;;;;;;2055718;28;20031;-70
2020/12/07 02:58:41;;;;;;;35.28;17.00;;;;;;;;;;2049813;28;20065;-70
2020/12/07 03:00:00;;;;;;;38.75;17.58;;;;;;;;;;2054538;28;20126;-70
2020/12/07 03:01:19;;;;;;;37.97;17.50;;;;;;;;;;2054627;28;20015;-70
2020/12/07 03:02:38;;;;;;;38.00;17.23;;;;;;;;;;2053257;28;20023;-70
2020/12/07 03:03:57;;;;;;;37.65;17.05;;;;;;;;;;2049587;28;20023;-70
2020/12/07 03:05:15;;;;;;;38.65;17.67;;;;;;;;;;2053082;28;20387;-70
2020/12/07 03:06:35;;;;;;;35.55;17.77;;;;;;;;;;2053005;28;20038;-70
2020/12/07 03:07:53;;;;;;;41.17;17.45;;;;;;;;;;2053372;28;20027;-68
2020/12/07 03:09:12;;;;;;;34.65;16.65;;;;;;;;;;2052059;28;20031;-70
2020/12/07 03:10:31;;;;;;;31.48;16.35;;;;;;;;;;2052699;28;20043;-70
2020/12/07 03:11:50;;;;;;;38.97;18.77;;;;;;;;;;2052750;28;20042;-69
2020/12/07 03:13:09;;;;;;;36.60;17.17;;;;;;;;;;2053684;28;20038;-71
2020/12/07 03:14:28;;;;;;;35.67;17.40;;;;;;;;;;2054377;28;20023;-68
2020/12/07 03:15:47;;;;;;;38.78;17.00;;;;;;;;;;2050147;28;20039;-68
2020/12/07 03:17:06;;;;;;;38.03;17.58;;;;;;;;;;2050324;28;20020;-67
2020/12/07 03:18:25;;;;;;;44.30;19.20;;;;;;;;;;2054747;28;20114;-68
2020/12/07 03:19:44;;;;;;;38.58;17.63;;;;;;;;;;2054125;28;20113;-69
2020/12/07 03:21:03;;;;;;;38.65;17.75;;;;;;;;;;2050852;28;20019;-72
2020/12/07 03:22:22;;;;;;;43.53;18.15;;;;;;;;;;2054394;28;20058;-70
2020/12/07 03:23:41;;;;;;;37.42;17.67;;;;;;;;;;2052237;28;20394;-69
2020/12/07 03:25:00;;;;;;;39.58;18.38;;;;;;;;;;2054204;28;20050;-70
2020/12/07 03:26:19;;;;;;;38.17;18.85;;;;;;;;;;2054832;28;20106;-68
2020/12/07 03:27:38;;;;;;;43.90;18.75;;;;;;;;;;2053762;28;20463;-70
2020/12/07 03:28:57;;;;;;;46.38;18.40;;;;;;;;;;2051677;28;20672;-70
2020/12/07 03:30:17;;;;;;;39.10;18.90;;;;;;;;;;2052742;28;20035;-70
2020/12/07 03:31:38;;;;;;;37.35;18.38;;;;;;;;;;2050774;28;20524;-70
2020/12/07 03:32:56;;;;;;;38.45;18.50;;;;;;;;;;2054723;28;20109;-68
2020/12/07 03:34:15;;;;;;;38.97;18.98;;;;;;;;;;2050917;28;20050;-71
2020/12/07 03:35:34;;;;;;;43.97;19.02;;;;;;;;;;2051782;28;20071;-71
2020/12/07 03:36:53;;;;;;;33.75;18.50;;;;;;;;;;2053576;28;20027;-70
2020/12/07 03:38:12;;;;;;;35.42;19.30;;;;;;;;;;2053810;28;20030;-71
2020/12/07 03:39:31;;;;;;;42.30;19.58;;;;;;;;;;2056210;28;20034;-70
2020/12/07 03:40:50;;;;;;;41.75;18.63;;;;;;;;;;2053438;28;20370;-70
2020/12/07 03:42:09;;;;;;;38.53;17.95;;;;;;;;;;2054221;28;20052;-69
2020/12/07 03:43:28;;;;;;;41.78;18.42;;;;;;;;;;2054660;28;20027;-69
2020/12/07 03:44:47;;;;;;;35.90;17.70;;;;;;;;;;2050812;28;20023;-69
2020/12/07 03:46:06;;;;;;;42.55;18.23;;;;;;;;;;2055028;28;20023;-69
2020/12/07 03:47:25;;;;;;;37.60;17.90;;;;;;;;;;2053305;28;20043;-70
2020/12/07 03:48:44;;;;;;;44.00;19.13;;;;;;;;;;2053119;28;20039;-69
2020/12/07 03:50:03;;;;;;;43.05;18.27;;;;;;;;;;2052539;28;20439;-69
2020/12/07 03:51:22;;;;;;;44.97;19.60;;;;;;;;;;2053196;28;20031;-68
2020/12/07 03:52:41;;;;;;;39.72;19.70;;;;;;;;;;2051858;28;20031;-70
2020/12/07 03:53:59;;;;;;;42.95;19.00;;;;;;;;;;2054979;28;20063;-70
2020/12/07 03:55:18;;;;;;;39.30;18.52;;;;;;;;;;2055743;28;20495;-68
2020/12/07 03:56:37;;;;;;;42.28;19.52;;;;;;;;;;2054140;28;20486;-68
2020/12/07 03:57:56;;;;;;;44.33;19.33;;;;;;;;;;2057189;28;20034;-70
2020/12/07 03:59:15;;;;;;;38.22;18.75;;;;;;;;;;2054691;28;20416;-69
2020/12/07 04:00:34;;;;;;;41.53;18.77;;;;;;;;;;2053789;28;20027;-70
2020/12/07 04:01:53;;;;;;;43.08;19.40;;;;;;;;;;2053405;28;20031;-70
2020/12/07 04:03:13;;;;;;;47.28;19.65;;;;;;;;;;2054969;28;20078;-70
2020/12/07 04:04:47;;;;;;;44.95;18.67;;;;;;;;;;2052784;28;20018;-70
2020/12/07 04:06:14;;;;;;;39.17;18.42;;;;;;;;;;2053822;28;20122;-70
2020/12/07 04:07:33;;;;;;;41.20;19.23;;;;;;;;;;2053106;28;20117;-70
2020/12/07 04:08:52;;;;;;;40.85;18.98;;;;;;;;;;2053356;28;20031;-68
2020/12/07 04:10:12;;;;;;;43.70;19.92;;;;;;;;;;2054191;28;20035;-72
2020/12/07 04:11:32;;;;;;;39.63;19.00;;;;;;;;;;2054123;28;20479;-70
2020/12/07 04:12:51;;;;;;;39.08;19.02;;;;;;;;;;2055304;28;20031;-69
2020/12/07 04:14:10;;;;;;;38.08;18.58;;;;;;;;;;2053836;28;20027;-69
2020/12/07 04:15:28;;;;;;;38.17;18.48;;;;;;;;;;2053864;28;20038;-69
2020/12/07 04:16:47;;;;;;;40.28;18.67;;;;;;;;;;2055317;28;20027;-69
2020/12/07 04:18:06;;;;;;;40.85;18.90;;;;;;;;;;2055463;28;20019;-70
2020/12/07 04:19:25;;;;;;;42.13;19.23;;;;;;;;;;2053347;28;20031;-69
2020/12/07 04:20:44;;;;;;;42.10;19.17;;;;;;;;;;2054930;28;20059;-69
2020/12/07 04:22:03;;;;;;;40.05;18.85;;;;;;;;;;2055658;28;20475;-68
2020/12/07 04:23:22;;;;;;;35.88;17.48;;;;;;;;;;2055002;28;20491;-69
2020/12/07 04:24:40;;;;;;;42.92;19.17;;;;;;;;;;2054626;28;20114;-70
2020/12/07 04:25:59;;;;;;;40.03;18.02;;;;;;;;;;2056449;28;20031;-67
2020/12/07 04:27:18;;;;;;;36.10;18.33;;;;;;;;;;2049525;28;20027;-69
2020/12/07 04:28:37;;;;;;;42.05;18.98;;;;;;;;;;2054080;28;20038;-69
2020/12/07 04:29:56;;;;;;;42.20;18.63;;;;;;;;;;2054135;28;20031;-68
2020/12/07 04:31:15;;;;;;;35.97;18.38;;;;;;;;;;2056270;28;20030;-69
2020/12/07 04:32:34;;;;;;;41.45;18.73;;;;;;;;;;2055624;28;20022;-69
2020/12/07 04:33:53;;;;;;;42.08;18.55;;;;;;;;;;2052519;28;20027;-70
2020/12/07 04:35:12;;;;;;;36.72;18.52;;;;;;;;;;2052258;28;20394;-70
2020/12/07 04:36:31;;;;;;;36.50;17.88;;;;;;;;;;2056687;28;20378;-69
2020/12/07 04:37:50;;;;;;;37.78;19.05;;;;;;;;;;2054843;28;20467;-70
2020/12/07 04:39:09;;;;;;;36.65;18.45;;;;;;;;;;2053158;28;20023;-70
2020/12/07 04:40:28;;;;;;;37.65;18.63;;;;;;;;;;2051166;28;21525;-70
2020/12/07 04:41:47;;;;;;;42.22;18.60;;;;;;;;;;2055486;28;20475;-70
2020/12/07 04:43:06;;;;;;;37.95;18.38;;;;;;;;;;2054923;28;20035;-70
2020/12/07 04:44:25;;;;;;;40.85;18.35;;;;;;;;;;2053606;28;20027;-70
2020/12/07 04:45:44;;;;;;;37.63;18.67;;;;;;;;;;2051713;28;20019;-70
2020/12/07 04:47:03;;;;;;;38.63;18.33;;;;;;;;;;2052824;28;22956;-70
2020/12/07 04:48:23;;;;;;;35.85;17.98;;;;;;;;;;2055086;28;20390;-67
2020/12/07 04:49:42;;;;;;;43.65;18.42;;;;;;;;;;2052312;28;20366;-70
2020/12/07 04:51:04;;;;;;;41.17;18.83;;;;;;;;;;2053447;28;20026;-70
2020/12/07 04:52:23;;;;;;;42.70;18.85;;;;;;;;;;2051675;28;20031;-69
2020/12/07 04:53:43;;;;;;;39.75;17.17;;;;;;;;;;2056728;28;20386;-69
2020/12/07 04:55:03;;;;;;;39.90;18.98;;;;;;;;;;2052607;28;20034;-68
2020/12/07 04:56:22;;;;;;;39.95;17.83;;;;;;;;;;2055709;28;20499;-70
2020/12/07 04:57:43;;;;;;;46.08;19.88;;;;;;;;;;2052879;28;20406;-69
2020/12/07 04:59:02;;;;;;;35.53;17.85;;;;;;;;;;2052314;28;20059;-70
2020/12/07 05:00:22;;;;;;;35.65;18.13;;;;;;;;;;2054515;28;20031;-67
2020/12/07 05:01:41;;;;;;;40.25;18.50;;;;;;;;;;2057580;28;20027;-70
2020/12/07 05:03:00;;;;;;;39.10;19.13;;;;;;;;;;2057277;28;20019;-69
2020/12/07 05:04:19;;;;;;;43.08;18.98;;;;;;;;;;2057296;28;20023;-70
2020/12/07 05:05:38;;;;;;;37.72;18.25;;;;;;;;;;2056315;28;20031;-69
2020/12/07 05:06:57;;;;;;;43.95;18.85;;;;;;;;;;2056430;28;20331;-68
2020/12/07 05:08:16;;;;;;;32.42;17.85;;;;;;;;;;2054012;28;20109;-70
2020/12/07 05:09:37;;;;;;;37.70;18.02;;;;;;;;;;2052732;28;20027;-69
2020/12/07 05:10:59;;;;;;;37.70;18.98;;;;;;;;;;2052130;28;20395;-68
2020/12/07 05:12:26;;;;;;;34.67;17.75;;;;;;;;;;2056834;28;20411;-70
2020/12/07 05:14:07;;;;;;;35.67;17.23;;;;;;;;;;2050868;28;20039;-69
2020/12/07 05:15:26;;;;;;;34.67;17.90;;;;;;;;;;2057093;28;20039;-70
2020/12/07 05:16:45;;;;;;;36.17;17.15;;;;;;;;;;2053721;28;20027;-69
2020/12/07 05:18:04;;;;;;;38.70;16.90;;;;;;;;;;2056893;28;20058;-68
2020/12/07 05:19:23;;;;;;;39.60;16.80;;;;;;;;;;2053057;28;20024;-68
2020/12/07 05:20:42;;;;;;;38.00;17.58;;;;;;;;;;2054606;28;20055;-68
2020/12/07 05:22:01;;;;;;;36.53;17.27;;;;;;;;;;2052444;28;20532;-68
2020/12/07 05:23:20;;;;;;;26.52;14.85;;;;;;;;;;2053604;28;20110;-67
2020/12/07 05:24:39;;;;;;;33.03;15.93;;;;;;;;;;2055241;28;20491;-68
2020/12/07 05:25:59;;;;;;;29.88;15.60;;;;;;;;;;2055972;28;20035;-67
2020/12/07 05:27:19;;;;;;;28.80;16.45;;;;;;;;;;2053049;28;20035;-68
2020/12/07 05:28:42;;;;;;;27.52;15.32;;;;;;;;;;2052797;28;20023;-68
2020/12/07 05:30:19;;;;;;;27.50;15.27;;;;;;;;;;2054976;28;20383;-67
2020/12/07 05:31:38;;;;;;;34.00;14.75;;;;;;;;;;2056850;28;20039;-67
2020/12/07 05:32:57;;;;;;;22.80;13.88;;;;;;;;;;2052083;28;20023;-68
2020/12/07 05:34:17;;;;;;;27.42;13.93;;;;;;;;;;2054116;28;20027;-68
2020/12/07 05:35:36;;;;;;;27.05;14.48;;;;;;;;;;2051419;28;20026;-67
2020/12/07 05:36:56;;;;;;;27.88;14.38;;;;;;;;;;2048466;28;20472;-67
2020/12/07 05:38:15;;;;;;;25.50;14.00;;;;;;;;;;2054577;28;20027;-67
2020/12/07 05:39:34;;;;;;;23.98;13.65;;;;;;;;;;2053385;28;20022;-67
2020/12/07 05:40:52;;;;;;;28.15;14.20;;;;;;;;;;2054771;28;20016;-69
2020/12/07 05:42:12;;;;;;;32.63;14.60;;;;;;;;;;2055219;28;20483;-69
2020/12/07 05:43:32;;;;;;;25.83;14.45;;;;;;;;;;2055249;28;20031;-69
2020/12/07 05:44:52;;;;;;;28.88;14.20;;;;;;;;;;2055963;28;20027;-71
2020/12/07 05:46:11;;;;;;;23.65;13.88;;;;;;;;;;2060346;28;20035;-71
2020/12/07 05:47:31;;;;;;;28.23;14.05;;;;;;;;;;2050108;28;20035;-71
2020/12/07 05:48:51;;;;;;;27.60;13.77;;;;;;;;;;2054518;28;20031;-72
2020/12/07 05:50:10;;;;;;;26.33;13.18;;;;;;;;;;2057577;28;20475;-73
2020/12/07 05:51:29;;;;;;;23.85;13.88;;;;;;;;;;2056095;28;20043;-71
2020/12/07 05:52:58;;;;;;;25.25;13.77;;;;;;;;;;2057851;28;20026;-71
2020/12/07 05:54:17;;;;;;;25.40;13.32;;;;;;;;;;2054644;28;20541;-70
2020/12/07 05:55:36;;;;;;;22.30;13.20;;;;;;;;;;2053001;28;20442;-72
2020/12/07 05:56:58;;;;;;;24.80;13.68;;;;;;;;;;2050311;28;20067;-72
2020/12/07 05:58:19;;;;;;;27.50;15.07;;;;;;;;;;2053410;28;20035;-72
2020/12/07 05:59:43;;;;;;;27.35;14.00;;;;;;;;;;2051721;28;20117;-72
2020/12/07 06:01:02;;;;;;;26.90;14.05;;;;;;;;;;2052650;28;20031;-71
2020/12/07 06:02:21;;;;;;;22.40;13.48;;;;;;;;;;2051364;28;20114;-70
2020/12/07 06:03:41;;;;;;;24.17;12.55;;;;;;;;;;2047199;28;20054;-70
2020/12/07 06:05:01;;;;;;;26.90;12.45;;;;;;;;;;2054429;28;20030;-69
2020/12/07 06:06:41;;;;;;;24.77;12.63;;;;;;;;;;2057215;28;20220;-71
2020/12/07 06:08:12;;;;;;;32.03;13.40;;;;;;;;;;2056502;28;20038;-70
2020/12/07 06:09:31;;;;;;;23.40;12.23;;;;;;;;;;2056306;28;20034;-70
2020/12/07 06:10:50;;;;;;;27.98;13.55;;;;;;;;;;2052415;28;20130;-70
2020/12/07 06:12:15;;;;;;;28.33;12.35;;;;;;;;;;2055723;28;20030;-70
2020/12/07 06:13:34;;;;;;;20.30;11.80;;;;;;;;;;2052342;28;20062;-70
2020/12/07 06:14:53;;;;;;;17.75;11.20;;;;;;;;;;2055635;28;20374;-71
2020/12/07 06:16:12;;;;;;;22.05;11.60;;;;;;;;;;2054652;28;20114;-70
2020/12/07 06:17:31;;;;;;;21.90;11.57;;;;;;;;;;2050350;28;20030;-71
2020/12/07 06:18:54;;;;;;;24.35;11.10;;;;;;;;;;2055093;28;20023;-71
2020/12/07 06:20:24;;;;;;;21.42;12.20;;;;;;;;;;2049475;28;20023;-72
2020/12/07 06:21:46;;;;;;;22.55;11.50;;;;;;;;;;2050889;28;20408;-71
2020/12/07 06:23:05;;;;;;;21.17;10.77;;;;;;;;;;2053562;28;20479;-72
2020/12/07 06:24:36;;;;;;;19.92;11.90;;;;;;;;;;2056097;28;20042;-71
2020/12/07 06:25:57;;;;;;;21.38;11.65;;;;;;;;;;2062064;28;20042;-73
2020/12/07 06:27:16;;;;;;;16.27;11.05;;;;;;;;;;2055200;28;20062;-73
2020/12/07 06:28:35;;;;;;;15.65;10.98;;;;;;;;;;2056210;28;20031;-72
2020/12/07 06:29:58;;;;;;;20.90;11.23;;;;;;;;;;2050124;28;20043;-72
2020/12/07 06:31:17;;;;;;;18.50;10.25;;;;;;;;;;2051733;28;20028;-72
2020/12/07 06:32:47;;;;;;;26.05;11.02;;;;;;;;;;2055035;28;20490;-72
2020/12/07 06:34:09;;;;;;;18.52;10.55;;;;;;;;;;2054403;28;20483;-72
2020/12/07 06:35:28;;;;;;;15.63;10.13;;;;;;;;;;2054143;28;20031;-71
2020/12/07 06:36:48;;;;;;;23.13;10.90;;;;;;;;;;2056090;28;20071;-73
2020/12/07 06:38:07;;;;;;;26.98;11.93;;;;;;;;;;2053672;28;20102;-72
2020/12/07 06:39:25;;;;;;;18.90;10.27;;;;;;;;;;2056403;28;20398;-72
2020/12/07 06:40:50;;;;;;;22.73;10.98;;;;;;;;;;2054501;28;20030;-72
2020/12/07 06:42:09;;;;;;;23.40;11.23;;;;;;;;;;2048146;28;20081;-72
2020/12/07 06:43:32;;;;;;;21.67;10.77;;;;;;;;;;2050586;28;20476;-73
2020/12/07 06:44:51;;;;;;;18.48;10.90;;;;;;;;;;2056144;28;20027;-73
2020/12/07 06:46:30;;;;;;;16.25;10.32;;;;;;;;;;2053907;28;20108;-72
2020/12/07 06:47:50;;;;;;;16.38;10.45;;;;;;;;;;2055173;28;20410;-72
2020/12/07 06:49:10;;;;;;;24.30;10.57;;;;;;;;;;2054542;28;20034;-71
2020/12/07 06:50:31;;;;;;;22.70;11.07;;;;;;;;;;2051563;28;20038;-71
2020/12/07 06:51:54;;;;;;;19.27;10.27;;;;;;;;;;2055011;28;20034;-71
2020/12/07 06:53:44;;;;;;;18.67;11.20;;;;;;;;;;2051616;28;20031;-71
2020/12/07 06:55:06;;;;;;;19.48;10.00;;;;;;;;;;2056613;28;20035;-70
2020/12/07 06:56:26;;;;;;;20.58;10.63;;;;;;;;;;2054524;28;20042;-71
2020/12/07 06:57:48;;;;;;;23.63;11.10;;;;;;;;;;2055621;28;20118;-71
2020/12/07 06:59:08;;;;;;;16.95;10.32;;;;;;;;;;2060393;28;20105;-70
2020/12/07 07:00:27;;;;;;;16.63;11.20;;;;;;;;;;2056176;28;20022;-70
2020/12/07 07:01:52;;;;;;;17.10;10.00;;;;;;;;;;2056100;28;20030;-72
2020/12/07 07:03:11;;;;;;;21.10;9.65;;;;;;;;;;2055106;28;20026;-70
2020/12/07 07:04:30;;;;;;;20.73;10.07;;;;;;;;;;2051478;28;20035;-70
2020/12/07 07:05:49;;;;;;;17.02;10.15;;;;;;;;;;2052950;28;20446;-71
2020/12/07 07:07:08;;;;;;;20.85;10.68;;;;;;;;;;2057033;28;20363;-70
2020/12/07 07:08:27;;;;;;;20.48;9.90;;;;;;;;;;2053173;28;20032;-72
2020/12/07 07:09:46;;;;;;;19.55;10.77;;;;;;;;;;2054064;28;20493;-70
2020/12/07 07:11:05;;;;;;;21.15;10.55;;;;;;;;;;2051083;28;20043;-71
2020/12/07 07:12:24;;;;;;;18.08;10.40;;;;;;;;;;2049045;28;20443;-71
2020/12/07 07:13:47;;;;;;;18.25;10.23;;;;;;;;;;2049144;28;20039;-71
2020/12/07 07:15:08;;;;;;;18.15;10.60;;;;;;;;;;2055103;28;20027;-71
2020/12/07 07:16:26;;;;;;;18.80;11.52;;;;;;;;;;2056232;28;20058;-70
2020/12/07 07:17:46;;;;;;;13.57;8.43;;;;;;;;;;2054108;28;20436;-71
2020/12/07 07:19:05;;;;;;;15.90;8.82;;;;;;;;;;2055798;28;20110;-71
2020/12/07 07:20:24;;;;;;;21.25;9.82;;;;;;;;;;2050412;28;20024;-71
2020/12/07 07:21:49;;;;;;;14.52;10.25;;;;;;;;;;2054554;28;20035;-71
2020/12/07 07:23:08;;;;;;;18.98;9.15;;;;;;;;;;2054941;28;20039;-71
2020/12/07 07:24:31;;;;;;;14.10;8.98;;;;;;;;;;2055056;28;20055;-71
2020/12/07 07:26:11;;;;;;;17.10;8.82;;;;;;;;;;2054025;28;20034;-71
2020/12/07 07:29:08;;;;;;;19.90;9.32;;;;;;;;;;2055609;28;20019;-70
2020/12/07 07:30:27;;;;;;;15.88;8.70;;;;;;;;;;2055601;28;20027;-71
2020/12/07 07:31:46;;;;;;;15.60;8.95;;;;;;;;;;2055531;28;20502;-71
2020/12/07 07:33:05;;;;;;;14.35;9.73;;;;;;;;;;2055733;28;20035;-70
2020/12/07 07:34:23;;;;;;;17.83;9.30;;;;;;;;;;2054411;28;20097;-70
2020/12/07 07:35:42;;;;;;;15.98;9.52;;;;;;;;;;2053561;28;20023;-71
2020/12/07 07:37:01;;;;;;;12.35;8.85;;;;;;;;;;2055653;28;20106;-71
2020/12/07 07:38:26;;;;;;;15.60;8.65;;;;;;;;;;2055988;28;20332;-71
2020/12/07 07:39:46;;;;;;;14.25;8.70;;;;;;;;;;2055527;28;20019;-72
2020/12/07 07:41:06;;;;;;;12.73;7.82;;;;;;;;;;2054994;28;20335;-71
2020/12/07 07:42:25;;;;;;;14.93;8.75;;;;;;;;;;2054458;28;20035;-70
2020/12/07 07:43:44;;;;;;;18.02;8.50;;;;;;;;;;2056190;28;20177;-70
2020/12/07 07:45:04;;;;;;;13.80;7.85;;;;;;;;;;2055072;28;20027;-70
2020/12/07 07:46:23;;;;;;;12.73;8.13;;;;;;;;;;2054726;28;20019;-72
2020/12/07 07:48:21;;;;;;;14.43;8.00;;;;;;;;;;2053134;28;20031;-70